createdAt,value
2023-03-16T00:00:20.148Z,100088.25
2023-03-16T00:03:22.156Z,100092.59
2023-03-16T00:06:25.667Z,100087.38
2023-03-16T00:09:31.367Z,100101.28
2023-03-16T00:12:34.910Z,100107.34
2023-03-16T00:15:36.645Z,100079.59
2023-03-16T00:18:41.230Z,100102.13
2023-03-16T00:21:43.090Z,100091.78
2023-03-16T00:24:44.823Z,100107.34
2023-03-16T00:27:46.582Z,100090.03
2023-03-16T00:30:48.640Z,100111.69
2023-03-16T00:33:51.111Z,100093.47
2023-03-16T00:36:52.933Z,100106.50
2023-03-16T00:39:57.963Z,100118.69
2023-03-16T00:42:59.697Z,100115.19
2023-03-16T00:46:06.813Z,100128.22
2023-03-16T00:49:09.493Z,100122.16
2023-03-16T00:52:15.791Z,100116.09
2023-03-16T00:55:18.748Z,100128.22
2023-03-16T00:58:20.455Z,100131.72
2023-03-16T01:01:22.137Z,100125.66
2023-03-16T01:04:23.879Z,100112.66
2023-03-16T01:07:25.733Z,100148.22
2023-03-16T01:10:27.836Z,100134.34
2023-03-16T01:13:30.087Z,100156.03
2023-03-16T01:16:33.927Z,100142.16
2023-03-16T01:19:37.365Z,100110.94
2023-03-16T01:22:39.265Z,100132.63
2023-03-16T01:25:41.338Z,100132.66
2023-03-16T01:28:44.505Z,100157.78
2023-03-16T01:31:46.403Z,100151.72
2023-03-16T01:34:48.609Z,100155.19
2023-03-16T01:37:51.598Z,100156.09
2023-03-16T01:40:58.152Z,100173.44
2023-03-16T01:44:00.013Z,100138.75
2023-03-16T01:47:03.116Z,100162.22
2023-03-16T01:50:06.617Z,100169.97
2023-03-16T01:53:11.973Z,100165.66
2023-03-16T01:56:18.772Z,100162.22
2023-03-16T01:59:23.798Z,100176.94
2023-03-16T02:02:30.063Z,100179.56
2023-03-16T02:05:43.720Z,100184.78
2023-03-16T02:08:50.274Z,100193.47
2023-03-16T02:11:54.432Z,100198.69
2023-03-16T02:14:57.365Z,100190.00
2023-03-16T02:18:00.407Z,100190.00
2023-03-16T02:21:21.386Z,100202.16
2023-03-16T02:24:23.314Z,100198.69
2023-03-16T02:27:35.282Z,100203.91
2023-03-16T02:30:37.458Z,100187.41
2023-03-16T02:33:41.664Z,100195.22
2023-03-16T02:36:46.597Z,100204.78
2023-03-16T02:39:48.454Z,100208.25
2023-03-16T02:43:06.807Z,100197.81
2023-03-16T02:46:15.032Z,100210.84
2023-03-16T02:49:27.332Z,100212.59
2023-03-16T02:52:29.417Z,100201.31
2023-03-16T02:55:31.230Z,100197.81
2023-03-16T02:58:33.207Z,100196.09
2023-03-16T03:01:37.226Z,100199.56
2023-03-16T03:04:38.975Z,100203.03
2023-03-16T03:07:42.220Z,100203.91
2023-03-16T03:10:44.062Z,100205.63
2023-03-16T03:13:47.011Z,100209.09
2023-03-16T03:16:53.450Z,100202.19
2023-03-16T03:19:55.568Z,100188.28
2023-03-16T03:22:57.276Z,100196.97
2023-03-16T03:26:00.006Z,100216.06
2023-03-16T03:29:02.701Z,100223.88
2023-03-16T03:32:05.174Z,100225.63
2023-03-16T03:35:07.592Z,100225.63
2023-03-16T03:38:09.660Z,100203.03
2023-03-16T03:41:11.663Z,100223.00
2023-03-16T03:44:14.712Z,100233.44
2023-03-16T03:47:16.598Z,100238.63
2023-03-16T03:50:18.633Z,100245.56
2023-03-16T03:53:34.213Z,100251.66
2023-03-16T03:56:49.033Z,100262.09
2023-03-16T03:59:51.675Z,100262.09
2023-03-16T04:03:12.299Z,100249.06
2023-03-16T04:06:18.744Z,100266.41
2023-03-16T04:09:20.578Z,100271.63
2023-03-16T04:12:23.027Z,100263.81
2023-03-16T04:15:26.429Z,100266.41
2023-03-16T04:19:06.902Z,100267.28
2023-03-16T04:22:08.714Z,100274.25
2023-03-16T04:25:12.554Z,100286.41
2023-03-16T04:28:17.869Z,100296.81
2023-03-16T04:31:22.626Z,100294.19
2023-03-16T04:34:25.237Z,100295.94
2023-03-16T04:37:31.125Z,100297.66
2023-03-16T04:40:33.010Z,100305.47
2023-03-16T04:43:43.284Z,100278.56
2023-03-16T04:46:52.516Z,100316.78
2023-03-16T04:49:55.903Z,100330.69
2023-03-16T04:52:59.070Z,100328.94
2023-03-16T04:56:02.208Z,100319.38
2023-03-16T04:59:05.168Z,100319.38
2023-03-16T05:02:17.805Z,100346.31
2023-03-16T05:05:20.271Z,100347.16
2023-03-16T05:08:22.678Z,100348.91
2023-03-16T05:11:25.927Z,100358.47
2023-03-16T05:14:32.545Z,100356.72
2023-03-16T05:17:46.976Z,100369.75
2023-03-16T05:20:51.994Z,100359.34
2023-03-16T05:23:53.977Z,100361.09
2023-03-16T05:26:55.991Z,100367.16
2023-03-16T05:29:59.056Z,100374.97
2023-03-16T05:33:02.341Z,100380.19
2023-03-16T05:36:04.976Z,100348.88
2023-03-16T05:39:08.734Z,100374.13
2023-03-16T05:42:15.004Z,100348.06
2023-03-16T05:45:24.122Z,100388.03
2023-03-16T05:48:37.861Z,100381.06
2023-03-16T05:51:41.258Z,100397.59
2023-03-16T05:54:44.322Z,100395.88
2023-03-16T05:57:46.322Z,100400.22
2023-03-16T06:00:48.263Z,100411.50
2023-03-16T06:03:57.254Z,100390.66
2023-03-16T06:07:01.865Z,100408.03
2023-03-16T06:10:06.538Z,100409.72
2023-03-16T06:13:09.568Z,100415.78
2023-03-16T06:16:13.934Z,100409.59
2023-03-16T06:19:15.896Z,100406.03
2023-03-16T06:22:18.561Z,100419.00
2023-03-16T06:25:20.685Z,100407.69
2023-03-16T06:28:23.265Z,100392.06
2023-03-16T06:31:25.303Z,100431.16
2023-03-16T06:34:27.228Z,100428.53
2023-03-16T06:37:31.329Z,100435.50
2023-03-16T06:40:36.450Z,100418.97
2023-03-16T06:43:38.557Z,100445.00
2023-03-16T06:46:40.485Z,100443.34
2023-03-16T06:49:43.353Z,100452.03
2023-03-16T06:52:53.126Z,100446.81
2023-03-16T06:55:55.013Z,100457.25
2023-03-16T06:58:57.303Z,100459.00
2023-03-16T07:01:59.107Z,100464.22
2023-03-16T07:05:01.225Z,100472.94
2023-03-16T07:08:04.993Z,100474.69
2023-03-16T07:11:07.197Z,100472.09
2023-03-16T07:14:10.374Z,100489.44
2023-03-16T07:17:12.196Z,100500.72
2023-03-16T07:20:14.132Z,100477.16
2023-03-16T07:23:18.183Z,100482.25
2023-03-16T07:26:20.022Z,100500.38
2023-03-16T07:29:29.429Z,100508.97
2023-03-16T07:32:32.700Z,100496.56
2023-03-16T07:35:35.296Z,100504.28
2023-03-16T07:38:37.846Z,100492.81
2023-03-16T07:41:40.485Z,100506.66
2023-03-16T07:44:51.909Z,100512.69
2023-03-16T07:47:53.835Z,100508.38
2023-03-16T07:51:18.354Z,100506.63
2023-03-16T07:54:24.382Z,100518.75
2023-03-16T07:57:26.386Z,100520.63
2023-03-16T08:00:28.788Z,100522.53
2023-03-16T08:03:32.192Z,100531.38
2023-03-16T08:06:34.069Z,100511.34
2023-03-16T08:09:37.763Z,100517.53
2023-03-16T08:12:42.597Z,100528.75
2023-03-16T08:16:01.990Z,100539.03
2023-03-16T08:19:12.041Z,100532.03
2023-03-16T08:22:14.268Z,100547.53
2023-03-16T08:25:22.480Z,100543.91
2023-03-16T08:28:35.795Z,100550.97
2023-03-16T08:31:42.966Z,100547.66
2023-03-16T08:34:53.854Z,100548.53
2023-03-16T08:37:56.578Z,100558.16
2023-03-16T08:40:58.592Z,100563.44
2023-03-16T08:44:01.066Z,100578.31
2023-03-16T08:47:05.282Z,100564.53
2023-03-16T08:50:10.218Z,100569.78
2023-03-16T08:53:14.096Z,100568.09
2023-03-16T08:56:15.824Z,100584.69
2023-03-16T08:59:29.170Z,100583.72
2023-03-16T09:02:31.708Z,100579.16
2023-03-16T09:05:34.351Z,100580.94
2023-03-16T09:08:39.197Z,100594.84
2023-03-16T09:11:41.797Z,100597.47
2023-03-16T09:14:43.661Z,100601.84
2023-03-16T09:17:45.952Z,100569.66
2023-03-16T09:20:50.433Z,100577.47
2023-03-16T09:23:52.339Z,100600.81
2023-03-16T09:26:54.029Z,100604.22
2023-03-16T09:29:56.579Z,100599.91
2023-03-16T09:32:58.880Z,100589.63
2023-03-16T09:36:00.817Z,100592.25
2023-03-16T09:39:03.666Z,100614.81
2023-03-16T09:42:41.422Z,100617.34
2023-03-16T09:45:56.648Z,100583.34
2023-03-16T09:48:59.467Z,100612.53
2023-03-16T09:52:30.411Z,100610.50
2023-03-16T09:55:37.881Z,100614.13
2023-03-16T09:58:39.690Z,100621.84
2023-03-16T10:01:57.164Z,100613.16
2023-03-16T10:05:12.677Z,100618.97
2023-03-16T10:08:18.639Z,100620.63
2023-03-16T10:11:47.247Z,100613.72
2023-03-16T10:15:13.001Z,100627.72
2023-03-16T10:18:21.316Z,100631.22
2023-03-16T10:21:24.701Z,100626.56
2023-03-16T10:24:45.012Z,100629.78
2023-03-16T10:27:48.283Z,100624.53
2023-03-16T10:30:55.461Z,100620.13
2023-03-16T10:34:05.234Z,100640.50
2023-03-16T10:37:13.702Z,100643.44
2023-03-16T10:40:20.400Z,100650.53
2023-03-16T10:43:22.774Z,100641.06
2023-03-16T10:46:27.654Z,100630.72
2023-03-16T10:49:42.340Z,100645.44
2023-03-16T10:52:47.022Z,100661.16
2023-03-16T10:55:50.427Z,100657.78
2023-03-16T10:58:52.427Z,100648.31
2023-03-16T11:01:54.645Z,100671.00
2023-03-16T11:04:57.546Z,100652.50
2023-03-16T11:08:02.656Z,100659.25
2023-03-16T11:11:17.908Z,100664.22
2023-03-16T11:14:23.463Z,100649.25
2023-03-16T11:17:38.349Z,100660.63
2023-03-16T11:20:40.097Z,100671.13
2023-03-16T11:23:49.774Z,100670.41
2023-03-16T11:26:58.717Z,100662.69
2023-03-16T11:30:41.797Z,100654.25
2023-03-16T11:33:43.637Z,100666.66
2023-03-16T11:37:10.118Z,100669.22
2023-03-16T11:40:33.307Z,100664.50
2023-03-16T11:43:50.110Z,100664.88
2023-03-16T11:47:14.646Z,100666.59
2023-03-16T11:50:25.916Z,100639.75
2023-03-16T11:53:52.554Z,100642.66
2023-03-16T11:57:30.840Z,100662.97
2023-03-16T12:01:10.494Z,100669.91
2023-03-16T12:04:31.233Z,100663.44
2023-03-16T12:07:45.157Z,100667.88
2023-03-16T12:10:57.166Z,100666.13
2023-03-16T12:14:15.857Z,100663.63
2023-03-16T12:17:25.983Z,100674.97
2023-03-16T12:20:32.160Z,100646.34
2023-03-16T12:23:38.783Z,100652.56
2023-03-16T12:26:42.874Z,100657.16
2023-03-16T12:30:14.415Z,100665.31
2023-03-16T12:33:28.398Z,100669.59
2023-03-16T12:36:52.876Z,100662.97
2023-03-16T12:40:09.221Z,100666.13
2023-03-16T12:43:11.004Z,100664.09
2023-03-16T12:46:42.094Z,100669.22
2023-03-16T12:49:44.259Z,100684.34
2023-03-16T12:52:51.943Z,100639.44
2023-03-16T12:55:53.782Z,100668.34
2023-03-16T12:58:58.347Z,100683.16
2023-03-16T13:02:03.726Z,100685.81
2023-03-16T13:05:14.504Z,100698.28
2023-03-16T13:08:18.647Z,100687.16
2023-03-16T13:11:20.482Z,100698.63
2023-03-16T13:14:40.515Z,100698.53
2023-03-16T13:17:42.979Z,100677.19
2023-03-16T13:20:57.941Z,100699.25
2023-03-16T13:24:13.901Z,100674.56
2023-03-16T13:27:26.787Z,100702.66
2023-03-16T13:30:32.112Z,100698.34
2023-03-16T13:33:37.026Z,100694.44
2023-03-16T13:36:39.434Z,100686.31
2023-03-16T13:39:41.750Z,100698.63
2023-03-16T13:42:49.694Z,100709.50
2023-03-16T13:45:52.030Z,100717.69
2023-03-16T13:48:53.786Z,100712.69
2023-03-16T13:51:55.626Z,100712.94
2023-03-16T13:54:59.213Z,100720.06
2023-03-16T13:58:01.839Z,100708.91
2023-03-16T14:01:12.093Z,100717.06
2023-03-16T14:04:18.710Z,100711.13
2023-03-16T14:07:23.938Z,100719.00
2023-03-16T14:10:35.463Z,100717.28
2023-03-16T14:13:39.270Z,100708.66
2023-03-16T14:16:41.202Z,100705.91
2023-03-16T14:19:52.352Z,100718.09
2023-03-16T14:22:54.576Z,100725.03
2023-03-16T14:25:56.647Z,100717.06
2023-03-16T14:29:05.277Z,100722.91
2023-03-16T14:32:28.126Z,100740.06
2023-03-16T14:35:41.841Z,100735.88
2023-03-16T14:38:45.666Z,100747.41
2023-03-16T14:41:52.437Z,100748.34
2023-03-16T14:44:54.747Z,100710.03
2023-03-16T14:48:04.394Z,100728.38
2023-03-16T14:51:06.802Z,100744.84
2023-03-16T14:54:21.849Z,100746.59
2023-03-16T14:57:26.054Z,100734.47
2023-03-16T15:00:30.171Z,100757.19
2023-03-16T15:03:36.306Z,100764.19
2023-03-16T15:06:38.288Z,100750.41
2023-03-16T15:09:44.568Z,100762.72
2023-03-16T15:12:50.742Z,100779.31
2023-03-16T15:15:52.536Z,100771.41
2023-03-16T15:18:54.386Z,100768.88
2023-03-16T15:22:03.849Z,100772.38
2023-03-16T15:25:36.392Z,100781.06
2023-03-16T15:28:38.773Z,100795.91
2023-03-16T15:31:40.929Z,100802.03
2023-03-16T15:34:45.909Z,100798.56
2023-03-16T15:37:48.007Z,100806.44
2023-03-16T15:40:51.443Z,100811.69
2023-03-16T15:43:53.863Z,100818.69
2023-03-16T15:46:56.063Z,100819.59
2023-03-16T15:49:57.840Z,100802.19
2023-03-16T15:53:09.053Z,100800.44
2023-03-16T15:56:14.019Z,100810.91
2023-03-16T15:59:19.106Z,100828.38
2023-03-16T16:02:32.078Z,100833.59
2023-03-16T16:05:34.173Z,100840.59
2023-03-16T16:08:36.012Z,100835.38
2023-03-16T16:11:38.711Z,100842.38
2023-03-16T16:14:41.824Z,100844.13
2023-03-16T16:17:56.746Z,100845.91
2023-03-16T16:21:07.209Z,100862.47
2023-03-16T16:24:10.813Z,100870.34
2023-03-16T16:27:12.979Z,100873.78
2023-03-16T16:30:27.612Z,100867.69
2023-03-16T16:33:35.057Z,100876.34
2023-03-16T16:36:36.854Z,100882.44
2023-03-16T16:39:38.654Z,100889.38
2023-03-16T16:42:41.579Z,100886.75
2023-03-16T16:45:43.750Z,100888.41
2023-03-16T16:48:48.179Z,100889.22
2023-03-16T16:51:50.597Z,100896.16
2023-03-16T16:54:52.453Z,100905.72
2023-03-16T16:57:55.056Z,100907.44
2023-03-16T17:00:59.013Z,100913.50
2023-03-16T17:04:02.543Z,100920.41
2023-03-16T17:07:06.615Z,100923.00
2023-03-16T17:10:16.378Z,100918.56
2023-03-16T17:13:26.656Z,100927.31
2023-03-16T17:16:32.337Z,100908.03
2023-03-16T17:19:34.397Z,100927.22
2023-03-16T17:22:37.224Z,100940.22
2023-03-16T17:25:40.761Z,100939.34
2023-03-16T17:28:47.528Z,100942.75
2023-03-16T17:31:50.022Z,100967.13
2023-03-16T17:34:52.254Z,100960.97
2023-03-16T17:37:54.072Z,100930.31
2023-03-16T17:40:56.473Z,100977.41
2023-03-16T17:44:02.690Z,100981.75
2023-03-16T17:47:11.504Z,100976.47
2023-03-16T17:50:26.815Z,100974.69
2023-03-16T17:53:28.715Z,100943.19
2023-03-16T17:56:32.100Z,100988.50
2023-03-16T17:59:33.775Z,100991.09
2023-03-16T18:02:42.846Z,100991.06
2023-03-16T18:05:46.143Z,100978.81
2023-03-16T18:08:48.639Z,100988.34
2023-03-16T18:11:51.393Z,100994.41
2023-03-16T18:14:58.721Z,100992.50
2023-03-16T18:18:01.598Z,100995.16
2023-03-16T18:21:04.402Z,100993.31
2023-03-16T18:24:15.866Z,100994.13
2023-03-16T18:27:18.320Z,100997.50
2023-03-16T18:30:20.137Z,100986.94
2023-03-16T18:33:30.980Z,100999.06
2023-03-16T18:36:36.145Z,101014.75
2023-03-16T18:39:38.966Z,101029.44
2023-03-16T18:42:41.910Z,101005.72
2023-03-16T18:45:45.989Z,101018.75
2023-03-16T18:48:48.605Z,100988.97
2023-03-16T18:51:53.366Z,101025.56
2023-03-16T18:54:55.962Z,101010.63
2023-03-16T18:57:58.896Z,101035.88
2023-03-16T19:01:01.802Z,101038.38
2023-03-16T19:04:03.744Z,100998.03
2023-03-16T19:07:10.956Z,101031.19
2023-03-16T19:10:35.772Z,101024.19
2023-03-16T19:13:37.620Z,101038.09
2023-03-16T19:16:40.071Z,101046.72
2023-03-16T19:19:42.840Z,101043.16
2023-03-16T19:22:48.287Z,101049.16
2023-03-16T19:25:51.580Z,101049.94
2023-03-16T19:28:53.708Z,101049.88
2023-03-16T19:31:56.993Z,101061.91
2023-03-16T19:34:59.099Z,101043.28
2023-03-16T19:38:01.239Z,101059.75
2023-03-16T19:41:06.282Z,101068.28
2023-03-16T19:44:20.264Z,101080.31
2023-03-16T19:47:39.260Z,101072.50
2023-03-16T19:50:43.172Z,101072.44
2023-03-16T19:53:46.708Z,101082.13
2023-03-16T19:56:50.226Z,101061.75
2023-03-16T19:59:56.837Z,101085.31
2023-03-16T20:02:58.970Z,101092.00
2023-03-16T20:06:01.046Z,101092.66
2023-03-16T20:09:02.788Z,101099.53
2023-03-16T20:12:04.659Z,101095.06
2023-03-16T20:15:07.221Z,101095.84
2023-03-16T20:18:16.597Z,101106.28
2023-03-16T20:21:18.460Z,101102.03
2023-03-16T20:24:21.636Z,101114.97
2023-03-16T20:27:24.581Z,101099.13
2023-03-16T20:30:26.697Z,101099.25
2023-03-16T20:33:28.943Z,101100.13
2023-03-16T20:36:31.030Z,101110.44
2023-03-16T20:39:32.890Z,101115.50
2023-03-16T20:42:35.204Z,101102.22
2023-03-16T20:45:37.481Z,101106.41
2023-03-16T20:48:39.631Z,101126.38
2023-03-16T20:51:44.555Z,101144.53
2023-03-16T20:54:46.576Z,101144.50
2023-03-16T20:57:49.735Z,101141.06
2023-03-16T21:00:53.323Z,101137.63
2023-03-16T21:03:56.162Z,101139.44
2023-03-16T21:06:57.955Z,101141.19
2023-03-16T21:09:59.650Z,101143.91
2023-03-16T21:13:01.593Z,101138.66
2023-03-16T21:16:04.811Z,101135.84
2023-03-16T21:19:17.859Z,101155.00
2023-03-16T21:22:34.925Z,101147.91
2023-03-16T21:25:44.144Z,101119.78
2023-03-16T21:28:58.176Z,101149.53
2023-03-16T21:32:00.015Z,101140.69
2023-03-16T21:35:01.875Z,101149.16
2023-03-16T21:38:19.848Z,101150.84
2023-03-16T21:41:22.113Z,101150.69
2023-03-16T21:44:23.881Z,101144.38
2023-03-16T21:47:28.253Z,101150.47
2023-03-16T21:50:35.306Z,101156.44
2023-03-16T21:53:38.426Z,101147.72
2023-03-16T21:56:41.902Z,101164.44
2023-03-16T21:59:43.753Z,101162.53
2023-03-16T22:02:47.809Z,101158.22
2023-03-16T22:05:49.878Z,101159.72
2023-03-16T22:08:52.399Z,101159.69
2023-03-16T22:11:54.204Z,101175.34
2023-03-16T22:14:56.153Z,101171.53
2023-03-16T22:18:01.813Z,101168.75
2023-03-16T22:21:23.584Z,101170.34
2023-03-16T22:24:30.492Z,101170.06
2023-03-16T22:27:32.327Z,101161.22
2023-03-16T22:30:34.186Z,101166.75
2023-03-16T22:33:37.706Z,101177.19
2023-03-16T22:36:39.466Z,101170.25
2023-03-16T22:39:41.326Z,101173.75
2023-03-16T22:42:43.182Z,101173.69
2023-03-16T22:45:44.976Z,101181.63
2023-03-16T22:48:47.056Z,101164.97
2023-03-16T22:51:51.500Z,101182.59
2023-03-16T22:54:53.432Z,101191.16
2023-03-16T22:58:36.522Z,101191.25
2023-03-16T23:01:43.655Z,101194.59
2023-03-16T23:04:45.917Z,101184.91
2023-03-16T23:07:47.852Z,101176.84
2023-03-16T23:10:52.080Z,101190.81
2023-03-16T23:13:54.726Z,101192.50
2023-03-16T23:16:56.882Z,101195.69
2023-03-16T23:19:58.623Z,101180.63
2023-03-16T23:23:00.506Z,101157.88
2023-03-16T23:26:02.252Z,101199.91
2023-03-16T23:29:04.135Z,101196.31
2023-03-16T23:32:06.413Z,101193.56
2023-03-16T23:35:23.118Z,101199.63
2023-03-16T23:38:24.811Z,101199.59
2023-03-16T23:41:26.632Z,101201.41
2023-03-16T23:44:29.245Z,101205.53
2023-03-16T23:47:31.061Z,101219.13
2023-03-16T23:50:35.773Z,101204.28
2023-03-16T23:53:38.185Z,101198.06
2023-03-16T23:56:39.942Z,101185.63
2023-03-16T23:59:42.382Z,101187.50
